Time;durP1;ratioP1;P1;durP2;ratioP2;P2;SDS_P1;SDS_P2;PMS_P1;PMS_P2;Temp;Humidity;BMP_temperature;BMP_pressure;BME280_temperature;BME280_humidity;BME280_pressure;Samples;Min_cycle;Max_cycle;Signal;HPM_P1;HPM_P2
2023/01/02 00:01:39;;;;;;;8.82;5.38;;;;;;;16.25;70.00;100948.13;6130488;23;20084;-76
2023/01/02 00:04:04;;;;;;;7.80;4.95;;;;;;;16.25;70.06;100945.53;6157036;23;20010;-74
2023/01/02 00:06:34;;;;;;;8.88;5.03;;;;;;;16.25;69.86;100940.34;6130311;23;20012;-75
2023/01/02 00:09:01;;;;;;;8.75;5.13;;;;;;;16.24;69.84;100936.88;6156751;23;20013;-76
2023/01/02 00:11:26;;;;;;;9.25;4.95;;;;;;;16.24;69.80;100933.41;6130280;23;20013;-75
2023/01/02 00:13:51;;;;;;;8.60;4.72;;;;;;;16.24;70.06;100931.69;6105660;23;20009;-76
2023/01/02 00:16:17;;;;;;;10.27;5.18;;;;;;;16.24;69.80;100923.91;6105501;23;20044;-76
2023/01/02 00:18:42;;;;;;;8.48;5.00;;;;;;;16.24;69.90;100926.50;6154913;23;20434;-76
2023/01/02 00:21:08;;;;;;;8.65;5.10;;;;;;;16.25;69.62;100922.16;6105747;23;20080;-75
2023/01/02 00:23:34;;;;;;;8.93;5.05;;;;;;;16.25;69.96;100917.81;6130377;23;20001;-75
2023/01/02 00:26:00;;;;;;;7.78;4.82;;;;;;;16.25;69.87;100922.16;6130311;23;20121;-77
2023/01/02 00:28:25;;;;;;;8.43;4.80;;;;;;;16.25;69.98;100912.63;6130199;23;20092;-75
2023/01/02 00:30:51;;;;;;;7.57;4.65;;;;;;;16.24;69.92;100916.13;6154716;23;20065;-75
2023/01/02 00:33:17;;;;;;;7.68;4.45;;;;;;;16.24;69.81;100918.72;6130023;23;20013;-75
2023/01/02 00:35:42;;;;;;;8.30;4.80;;;;;;;16.25;70.03;100929.94;6130045;23;20009;-75
2023/01/02 00:38:07;;;;;;;8.32;4.55;;;;;;;16.24;69.90;100929.09;6105490;23;20367;-77
2023/01/02 00:40:33;;;;;;;9.93;4.95;;;;;;;16.25;69.89;100935.16;6130022;23;20021;-75
2023/01/02 00:42:59;;;;;;;8.75;4.82;;;;;;;16.23;69.81;100921.31;6131729;23;20025;-75
2023/01/02 00:45:25;;;;;;;7.05;4.32;;;;;;;16.22;69.85;100923.03;6135043;23;20460;-75
2023/01/02 00:47:50;;;;;;;7.05;4.45;;;;;;;16.24;69.82;100916.13;6135517;23;20009;-76
2023/01/02 00:50:15;;;;;;;7.78;4.50;;;;;;;16.24;69.83;100923.00;6159625;23;20005;-76
2023/01/02 00:52:41;;;;;;;6.85;4.35;;;;;;;16.24;69.83;100921.31;6159577;23;20009;-75
2023/01/02 00:55:07;;;;;;;6.78;4.35;;;;;;;16.24;69.80;100923.00;6110432;23;20438;-75
2023/01/02 00:57:32;;;;;;;8.20;4.30;;;;;;;16.23;69.83;100918.72;6109679;23;20005;-76
2023/01/02 00:59:57;;;;;;;8.40;4.20;;;;;;;16.24;69.73;100918.72;6110468;23;20018;-76
2023/01/02 01:02:23;;;;;;;8.00;4.50;;;;;;;16.24;69.83;100918.72;6159460;23;20342;-75
2023/01/02 01:04:51;;;;;;;7.40;4.65;;;;;;;16.24;69.67;100918.72;6110375;23;20009;-75
2023/01/02 01:07:17;;;;;;;7.05;4.45;;;;;;;16.23;69.93;100911.78;6134742;23;20021;-75
2023/01/02 01:09:42;;;;;;;7.65;4.50;;;;;;;16.22;69.87;100912.66;6134717;23;20013;-75
2023/01/02 01:12:08;;;;;;;5.70;3.78;;;;;;;16.22;69.79;100904.88;6110531;23;20472;-76
2023/01/02 01:14:34;;;;;;;7.03;3.95;;;;;;;16.22;69.70;100894.47;6184210;23;20001;-75
2023/01/02 01:16:59;;;;;;;7.63;4.15;;;;;;;16.21;69.98;100890.13;6135128;23;20036;-75
2023/01/02 01:19:30;;;;;;;6.97;4.00;;;;;;;16.22;69.84;100888.41;6159410;23;20087;-75
2023/01/02 01:21:55;;;;;;;7.13;4.20;;;;;;;16.21;69.74;100887.53;6159498;23;20430;-76
2023/01/02 01:24:21;;;;;;;6.63;3.92;;;;;;;16.22;70.17;100878.91;6160320;23;20028;-76
2023/01/02 01:26:46;;;;;;;5.63;3.40;;;;;;;16.22;69.66;100865.03;6112569;23;20033;-75
2023/01/02 01:29:11;;;;;;;5.38;3.78;;;;;;;16.22;69.94;100860.72;6112252;23;20043;-76
2023/01/02 01:31:37;;;;;;;6.60;3.90;;;;;;;16.22;69.94;100870.22;6161345;23;20459;-74
2023/01/02 01:34:02;;;;;;;6.90;3.63;;;;;;;16.24;69.97;100873.69;6111956;23;20005;-75
2023/01/02 01:36:27;;;;;;;6.82;3.80;;;;;;;16.22;69.90;100878.91;6160881;23;20020;-78
2023/01/02 01:38:53;;;;;;;6.38;3.40;;;;;;;16.23;69.93;100882.34;6136662;23;20017;-80
2023/01/02 01:41:21;;;;;;;5.80;3.42;;;;;;;16.22;69.89;100873.72;6136429;23;20056;-79
2023/01/02 01:43:51;;;;;;;5.47;3.40;;;;;;;16.23;69.99;100884.94;6185704;23;20116;-79
2023/01/02 01:46:40;;;;;;;6.35;3.55;;;;;;;16.23;69.54;100892.75;6187272;23;20440;-79
2023/01/02 01:49:20;;;;;;;5.43;3.95;;;;;;;16.23;69.55;100885.81;6185612;23;20009;-78
2023/01/02 01:52:08;;;;;;;4.97;3.30;;;;;;;16.22;69.70;100884.09;6185615;23;20009;-79
2023/01/02 01:55:00;;;;;;;6.18;3.50;;;;;;;16.22;69.86;100878.00;6160900;23;20000;-77
2023/01/02 01:57:43;;;;;;;5.18;3.42;;;;;;;16.23;69.83;100879.75;6160721;23;20063;-80
2023/01/02 02:00:10;;;;;;;6.03;3.75;;;;;;;16.22;69.86;100876.31;6160772;23;19997;-80
2023/01/02 02:02:38;;;;;;;6.10;3.50;;;;;;;16.23;69.82;100880.63;6185498;23;20497;-79
2023/01/02 02:05:05;;;;;;;6.05;3.70;;;;;;;16.22;69.52;100885.81;6136629;23;20067;-79
2023/01/02 02:07:34;;;;;;;5.35;3.50;;;;;;;16.23;70.23;100877.16;6111614;23;20005;-80
2023/01/02 02:10:05;;;;;;;4.88;3.03;;;;;;;16.22;69.89;100872.81;6136870;23;20005;-79
2023/01/02 02:12:33;;;;;;;5.72;3.28;;;;;;;16.23;69.67;100877.16;6186641;23;20009;-80
2023/01/02 02:14:58;;;;;;;5.28;3.28;;;;;;;16.22;69.76;100876.31;6187148;23;20422;-80
2023/01/02 02:17:38;;;;;;;4.63;3.03;;;;;;;16.20;69.97;100872.84;6135946;23;20060;-80
2023/01/02 02:20:13;;;;;;;4.88;2.97;;;;;;;16.22;69.58;100896.19;6185816;23;20009;-80
2023/01/02 02:22:47;;;;;;;4.15;3.03;;;;;;;16.21;69.63;100894.47;6160438;23;20005;-80
2023/01/02 02:25:19;;;;;;;5.35;2.92;;;;;;;16.21;69.62;100890.13;6185291;23;20009;-81
2023/01/02 02:28:13;;;;;;;5.45;3.15;;;;;;;16.21;70.01;100892.72;6186931;23;20005;-80
2023/01/02 02:31:06;;;;;;;5.38;3.20;;;;;;;16.21;69.79;100905.72;6186853;23;20032;-80
2023/01/02 02:33:57;;;;;;;6.03;3.40;;;;;;;16.22;69.82;100894.47;6160604;23;20013;-80
2023/01/02 02:36:57;;;;;;;6.38;3.33;;;;;;;16.21;69.73;100895.34;6184785;23;20084;-78
2023/01/02 02:39:38;;;;;;;5.47;3.30;;;;;;;16.22;69.34;100896.19;6153654;23;20038;-79
2023/01/02 02:42:19;;;;;;;4.97;3.25;;;;;;;16.22;69.93;100896.19;6184974;23;20013;-78
2023/01/02 02:45:31;;;;;;;5.15;3.22;;;;;;;16.21;69.49;100887.53;6186740;23;20012;-82
2023/01/02 02:48:19;;;;;;;5.45;3.35;;;;;;;16.21;69.88;100873.69;6038163;23;20046;-75
2023/01/02 02:50:59;;;;;;;3.63;2.60;;;;;;;16.21;69.67;100871.09;6186564;23;20000;-75
2023/01/02 02:53:31;;;;;;;5.10;3.25;;;;;;;16.19;69.59;100865.91;6160232;23;20024;-76
2023/01/02 02:56:00;;;;;;;4.85;2.80;;;;;;;16.20;69.59;100867.66;6160531;23;20338;-74
2023/01/02 02:58:28;;;;;;;4.75;3.10;;;;;;;16.21;69.63;100865.91;6184821;23;20005;-75
2023/01/02 03:01:06;;;;;;;4.88;2.90;;;;;;;16.21;69.63;100863.31;6160475;23;20009;-75
2023/01/02 03:03:31;;;;;;;4.05;2.90;;;;;;;16.21;69.82;100868.50;6186412;23;20009;-75
2023/01/02 03:06:25;;;;;;;4.50;2.65;;;;;;;16.21;69.73;100866.78;6159264;23;20461;-75
2023/01/02 03:09:06;;;;;;;3.85;2.95;;;;;;;16.20;69.63;100859.88;6186900;23;20421;-74
2023/01/02 03:12:10;;;;;;;3.20;2.78;;;;;;;16.20;69.87;100867.66;6184803;23;20012;-75
2023/01/02 03:14:39;;;;;;;4.28;3.35;;;;;;;16.21;69.95;100868.50;6154223;23;20005;-75
2023/01/02 03:17:15;;;;;;;4.30;3.10;;;;;;;16.20;69.84;100870.25;6185174;23;20448;-75
2023/01/02 03:19:44;;;;;;;3.85;2.63;;;;;;;16.20;69.69;100857.28;6159762;23;20426;-74
2023/01/02 03:22:20;;;;;;;4.55;2.70;;;;;;;16.21;69.83;100852.94;6186265;23;20001;-75
2023/01/02 03:24:50;;;;;;;3.70;2.90;;;;;;;16.21;69.83;100860.72;6159868;23;20005;-76
2023/01/02 03:27:21;;;;;;;4.32;2.78;;;;;;;16.19;69.64;100860.72;6159809;23;20413;-75
2023/01/02 03:29:54;;;;;;;5.60;2.95;;;;;;;16.20;69.85;100865.06;6186271;23;20027;-74
2023/01/02 03:32:24;;;;;;;3.65;2.50;;;;;;;16.21;69.73;100877.16;6184624;23;20043;-74
2023/01/02 03:34:51;;;;;;;5.03;2.60;;;;;;;16.20;69.67;100872.84;6186264;23;20005;-76
2023/01/02 03:37:22;;;;;;;3.30;2.45;;;;;;;16.21;69.67;100878.91;6135418;23;20448;-77
2023/01/02 03:39:54;;;;;;;4.38;2.63;;;;;;;16.21;69.63;100878.91;6160147;23;20345;-75
2023/01/02 03:42:26;;;;;;;4.50;2.83;;;;;;;16.20;69.72;100872.84;6116913;23;20028;-75
2023/01/02 03:45:01;;;;;;;3.90;2.85;;;;;;;16.21;69.77;100891.88;6130282;23;20017;-75
2023/01/02 03:47:45;;;;;;;4.05;2.50;;;;;;;16.19;69.93;100889.28;6129687;23;20009;-75
2023/01/02 03:50:25;;;;;;;3.45;2.50;;;;;;;16.20;69.86;100877.16;6130039;23;20008;-74
2023/01/02 03:52:50;;;;;;;5.30;2.60;;;;;;;16.19;69.61;100891.88;6156319;23;20444;-75
2023/01/02 03:55:16;;;;;;;3.55;2.25;;;;;;;16.20;69.55;100890.13;6105834;23;20036;-75
2023/01/02 03:58:10;;;;;;;4.65;2.55;;;;;;;16.19;69.70;100885.81;6130185;23;20005;-75
2023/01/02 04:00:42;;;;;;;3.28;2.30;;;;;;;16.19;69.70;100891.88;6156372;23;20427;-75
2023/01/02 04:03:10;;;;;;;4.25;2.42;;;;;;;16.19;69.78;100886.69;6156091;23;20001;-75
2023/01/02 04:06:17;;;;;;;2.78;1.90;;;;;;;16.19;69.82;100893.63;6154447;23;20056;-75
2023/01/02 04:08:45;;;;;;;3.67;2.35;;;;;;;16.20;69.75;100897.94;6008844;23;20453;-74
2023/01/02 04:11:15;;;;;;;3.70;2.10;;;;;;;16.18;69.69;100894.50;6009165;23;20512;-74
2023/01/02 04:13:48;;;;;;;4.18;1.95;;;;;;;16.18;69.41;100905.75;6061743;23;20005;-75
2023/01/02 04:16:21;;;;;;;5.40;2.20;;;;;;;16.19;69.48;100898.81;6129957;23;19997;-74
2023/01/02 04:19:33;;;;;;;2.63;1.90;;;;;;;16.18;69.78;100905.75;6156206;23;20001;-75
2023/01/02 04:22:03;;;;;;;4.45;1.92;;;;;;;16.18;69.65;100910.06;6126266;23;20029;-74
2023/01/02 04:24:36;;;;;;;3.05;1.95;;;;;;;16.18;69.65;100907.47;6156131;23;20001;-74
2023/01/02 04:27:28;;;;;;;3.72;2.10;;;;;;;16.17;69.56;100916.97;6129705;23;20431;-75
2023/01/02 04:29:55;;;;;;;2.63;1.88;;;;;;;16.18;69.55;100921.31;6130039;23;20016;-76
2023/01/02 04:32:27;;;;;;;3.20;2.00;;;;;;;16.17;69.59;100929.09;6105826;23;20009;-75
2023/01/02 04:34:54;;;;;;;2.90;1.88;;;;;;;16.17;69.66;100926.50;6129743;23;20453;-74
2023/01/02 04:37:27;;;;;;;3.63;2.53;;;;;;;16.17;69.89;100926.50;6155960;23;20435;-76
2023/01/02 04:39:58;;;;;;;3.20;2.20;;;;;;;16.17;69.88;100935.16;6129913;23;20077;-76
2023/01/02 04:42:24;;;;;;;4.72;2.20;;;;;;;16.17;69.69;100952.47;6155998;23;20319;-76
2023/01/02 04:44:50;;;;;;;3.65;2.17;;;;;;;16.16;69.51;100953.34;6105883;23;20021;-75
2023/01/02 04:47:15;;;;;;;2.65;1.92;;;;;;;16.16;69.46;100956.81;6129827;23;20009;-76
2023/01/02 04:49:40;;;;;;;3.10;1.60;;;;;;;16.17;69.51;100962.84;6105751;23;20033;-76
2023/01/02 04:52:06;;;;;;;3.10;1.90;;;;;;;16.16;69.05;100964.59;6105416;23;20013;-75
2023/01/02 04:54:31;;;;;;;3.15;1.88;;;;;;;16.16;69.46;100971.53;6129790;23;20063;-76
2023/01/02 04:56:56;;;;;;;3.08;1.90;;;;;;;16.15;69.51;100983.63;6081605;23;20005;-76
2023/01/02 04:59:22;;;;;;;2.42;1.50;;;;;;;16.15;69.51;100983.63;6131097;23;20427;-77
2023/01/02 05:01:47;;;;;;;2.22;1.70;;;;;;;16.15;69.62;100975.81;6132027;23;20457;-75
2023/01/02 05:04:12;;;;;;;3.05;1.90;;;;;;;16.15;69.65;100985.34;6132137;23;20341;-75
2023/01/02 05:06:38;;;;;;;2.97;1.63;;;;;;;16.15;69.50;100994.00;6131644;23;20351;-74
2023/01/02 05:09:03;;;;;;;2.08;1.67;;;;;;;16.16;69.72;100997.50;6107611;23;20010;-75
2023/01/02 05:11:28;;;;;;;2.03;1.58;;;;;;;16.15;69.58;101017.38;6156228;23;20017;-74
2023/01/02 05:13:54;;;;;;;2.28;1.63;;;;;;;16.17;69.45;101025.16;6107554;23;20011;-75
2023/01/02 05:16:19;;;;;;;1.70;1.30;;;;;;;16.17;69.45;101033.81;6107065;23;20009;-74
2023/01/02 05:18:44;;;;;;;1.92;1.45;;;;;;;16.17;69.65;101041.59;6107115;23;20013;-75
2023/01/02 05:23:59;;;;;;;1.90;1.38;;;;;;;16.18;69.59;101063.25;6135571;23;20020;-74
2023/01/02 05:26:25;;;;;;;2.35;1.42;;;;;;;16.17;69.11;101064.97;6131328;23;19998;-74
2023/01/02 05:28:52;;;;;;;1.73;1.20;;;;;;;16.17;69.39;101077.94;6131376;23;19997;-75
2023/01/02 05:31:17;;;;;;;1.77;1.25;;;;;;;16.18;69.28;101076.25;6131643;23;20021;-75
2023/01/02 05:33:43;;;;;;;1.98;1.20;;;;;;;16.17;69.29;101087.47;6106943;23;20013;-74
2023/01/02 05:36:08;;;;;;;1.48;1.10;;;;;;;16.17;69.59;101098.72;6106935;23;20001;-75
2023/01/02 05:38:35;;;;;;;2.30;1.20;;;;;;;16.17;69.26;101103.91;6157851;23;20088;-75
2023/01/02 05:41:05;;;;;;;1.90;1.10;;;;;;;16.18;69.19;101104.81;6133462;23;20052;-76
2023/01/02 05:43:33;;;;;;;1.67;1.27;;;;;;;16.18;69.11;101104.81;6160689;23;20013;-75
2023/01/02 05:46:06;;;;;;;1.95;1.25;;;;;;;16.18;69.23;101115.19;6161864;23;20024;-76
2023/01/02 05:48:32;;;;;;;2.88;1.23;;;;;;;16.17;69.12;101119.50;6160874;23;20434;-75
2023/01/02 05:51:01;;;;;;;2.33;1.30;;;;;;;16.17;69.29;101127.28;6160832;23;20087;-75
2023/01/02 05:53:27;;;;;;;1.42;1.10;;;;;;;16.18;68.80;101134.22;6136885;23;20013;-75
2023/01/02 05:55:52;;;;;;;1.85;1.00;;;;;;;16.18;69.14;101143.75;6187113;23;20418;-75
2023/01/02 05:58:18;;;;;;;1.92;1.30;;;;;;;16.18;69.23;101138.56;6135958;23;20007;-75
2023/01/02 06:00:43;;;;;;;1.60;1.00;;;;;;;16.17;69.03;101150.66;6136385;23;20004;-75
2023/01/02 06:03:09;;;;;;;1.38;1.02;;;;;;;16.17;69.06;101158.44;6160683;23;20012;-75
2023/01/02 06:05:34;;;;;;;2.30;1.20;;;;;;;16.17;68.91;101153.25;6111438;23;20517;-79
2023/01/02 06:08:00;;;;;;;1.42;1.00;;;;;;;16.17;68.80;101152.38;6136416;23;20087;-77
2023/01/02 06:10:25;;;;;;;2.22;1.00;;;;;;;16.18;69.25;101151.53;6160232;23;20017;-80
2023/01/02 06:12:50;;;;;;;1.27;0.90;;;;;;;16.18;69.05;101160.19;6111504;23;20496;-80
2023/01/02 06:15:16;;;;;;;1.27;0.93;;;;;;;16.19;69.25;101166.25;6111576;23;20395;-77
2023/01/02 06:17:41;;;;;;;7.47;1.00;;;;;;;16.20;69.06;101170.56;6160504;23;20005;-77
2023/01/02 06:20:10;;;;;;;2.05;1.17;;;;;;;16.19;68.69;101166.25;6135851;23;20453;-77
2023/01/02 06:22:35;;;;;;;1.58;1.02;;;;;;;16.19;68.88;101174.03;6160334;23;20008;-77
2023/01/02 06:25:00;;;;;;;1.60;1.00;;;;;;;16.20;69.11;101176.66;6135983;23;20032;-76
2023/01/02 06:27:26;;;;;;;1.27;0.90;;;;;;;16.19;69.06;101172.28;6111375;23;20080;-76
2023/01/02 06:29:51;;;;;;;1.40;0.90;;;;;;;16.19;68.76;101176.63;6111454;23;20067;-76
2023/01/02 06:32:17;;;;;;;1.20;0.93;;;;;;;16.19;68.78;101190.47;6110996;23;20021;-76
2023/01/02 06:34:42;;;;;;;2.03;0.88;;;;;;;16.19;68.93;101198.25;6135538;23;20100;-76
2023/01/02 06:37:07;;;;;;;1.73;0.82;;;;;;;16.20;69.08;101199.13;6160465;23;20001;-75
2023/01/02 06:39:32;;;;;;;2.33;1.17;;;;;;;16.20;69.14;101202.59;6111405;23;20418;-76
2023/01/02 06:41:58;;;;;;;4.50;2.00;;;;;;;16.19;68.93;101200.84;6130942;23;20434;-76
2023/01/02 06:44:23;;;;;;;8.30;2.70;;;;;;;16.20;68.92;101219.91;6106519;23;20006;-78
2023/01/02 06:46:48;;;;;;;5.05;2.53;;;;;;;16.20;68.86;101218.19;6130841;23;20010;-75
2023/01/02 06:49:14;;;;;;;5.50;2.60;;;;;;;16.20;68.66;101223.38;6106419;23;20086;-76
2023/01/02 06:51:39;;;;;;;5.95;2.40;;;;;;;16.20;69.13;101236.38;6106303;23;20001;-76
2023/01/02 06:54:04;;;;;;;7.70;2.40;;;;;;;16.22;69.18;101241.53;6130685;23;20006;-75
2023/01/02 06:56:30;;;;;;;5.20;2.40;;;;;;;16.21;68.75;101238.09;6130592;23;20523;-76
2023/01/02 06:58:57;;;;;;;6.18;2.42;;;;;;;16.20;68.94;101238.97;6106164;23;20145;-75
2023/01/02 07:01:22;;;;;;;6.47;2.55;;;;;;;16.21;68.92;101250.22;6130679;23;20005;-77
2023/01/02 07:03:50;;;;;;;5.50;2.15;;;;;;;16.21;68.85;101258.00;6130498;23;20020;-75
2023/01/02 07:06:21;;;;;;;5.93;2.42;;;;;;;16.22;69.02;101259.72;6131015;23;20064;-75
2023/01/02 07:08:47;;;;;;;5.22;2.08;;;;;;;16.21;69.12;101264.06;6105896;23;20033;-76
2023/01/02 07:11:23;;;;;;;5.63;2.25;;;;;;;16.21;68.68;101271.84;6131019;23;20430;-77
2023/01/02 07:13:51;;;;;;;3.88;2.00;;;;;;;16.22;68.94;101271.00;6156462;23;20005;-75
2023/01/02 07:16:19;;;;;;;4.13;1.88;;;;;;;16.21;69.01;101274.44;6130850;23;20338;-75
2023/01/02 07:18:44;;;;;;;5.57;2.30;;;;;;;16.23;69.06;101292.63;6156620;23;20075;-75
2023/01/02 07:21:11;;;;;;;5.55;2.35;;;;;;;16.22;68.89;101296.97;6130257;23;20497;-76
2023/01/02 07:23:37;;;;;;;3.90;2.03;;;;;;;16.22;68.87;101303.88;6130258;23;20088;-75
2023/01/02 07:26:04;;;;;;;5.25;2.28;;;;;;;16.21;68.86;101308.19;6130372;23;20012;-75
2023/01/02 07:28:30;;;;;;;4.38;2.00;;;;;;;16.23;68.67;101316.84;6154771;23;20461;-76
2023/01/02 07:30:57;;;;;;;4.20;1.80;;;;;;;16.23;68.96;101316.00;6130650;23;20002;-77
2023/01/02 07:33:22;;;;;;;7.20;2.38;;;;;;;16.22;68.69;101325.53;6130310;23;20092;-75
2023/01/02 07:35:48;;;;;;;3.95;1.88;;;;;;;16.22;68.79;101335.91;6130316;23;20029;-75
2023/01/02 07:38:13;;;;;;;3.70;1.70;;;;;;;16.22;68.94;101333.31;6130490;23;20009;-77
2023/01/02 07:40:39;;;;;;;3.53;1.80;;;;;;;16.22;68.78;101338.50;6105726;23;20014;-75
2023/01/02 07:43:04;;;;;;;3.75;1.70;;;;;;;16.24;69.01;101354.06;6123563;23;20346;-76
2023/01/02 07:45:32;;;;;;;3.55;1.80;;;;;;;16.23;68.90;101349.75;6159909;23;20009;-76
2023/01/02 07:47:57;;;;;;;4.15;1.92;;;;;;;16.23;69.00;101357.56;6159951;23;20100;-75
2023/01/02 07:50:23;;;;;;;3.75;1.60;;;;;;;16.23;68.82;101363.59;6135099;23;20438;-75
2023/01/02 07:52:51;;;;;;;3.55;1.63;;;;;;;16.24;68.72;101372.25;6135199;23;20025;-76
2023/01/02 07:55:16;;;;;;;4.78;1.70;;;;;;;16.25;68.94;101379.19;6135261;23;20009;-76
2023/01/02 07:57:45;;;;;;;3.30;1.60;;;;;;;16.24;69.20;101385.25;6135058;23;20012;-75
2023/01/02 08:00:11;;;;;;;3.33;1.40;;;;;;;16.25;69.13;101402.56;6159343;23;20012;-75
2023/01/02 08:02:36;;;;;;;3.13;1.67;;;;;;;16.26;68.89;101404.28;6135475;23;20449;-75
2023/01/02 08:05:02;;;;;;;3.78;1.65;;;;;;;16.24;69.08;101412.09;6159576;23;20012;-75
2023/01/02 08:07:27;;;;;;;3.28;1.67;;;;;;;16.24;68.81;101417.28;6135028;23;20062;-76
2023/01/02 08:09:53;;;;;;;2.10;1.17;;;;;;;16.24;68.72;101417.28;6159456;23;20005;-76
2023/01/02 08:12:21;;;;;;;2.40;1.40;;;;;;;16.25;68.92;101421.63;6110475;23;20005;-75
2023/01/02 08:14:46;;;;;;;3.70;1.33;;;;;;;16.25;68.66;101431.13;6159449;23;20009;-75
2023/01/02 08:17:12;;;;;;;2.20;1.30;;;;;;;16.25;68.88;101441.53;6134911;23;20005;-76
2023/01/02 08:19:40;;;;;;;3.78;1.60;;;;;;;16.25;68.63;101442.38;6135032;23;20019;-76
2023/01/02 08:22:05;;;;;;;3.00;1.58;;;;;;;16.26;68.81;101438.06;6135374;23;20091;-76
2023/01/02 08:24:31;;;;;;;2.17;1.25;;;;;;;16.25;68.80;101433.75;6184268;23;20037;-78
2023/01/02 08:26:56;;;;;;;3.25;1.33;;;;;;;16.27;68.93;101429.41;6184121;23;20525;-76
2023/01/02 08:29:21;;;;;;;2.90;1.35;;;;;;;16.27;68.76;101436.34;6184049;23;20055;-76
2023/01/02 08:31:47;;;;;;;3.15;1.38;;;;;;;16.27;68.71;101446.75;6134750;23;20062;-76
2023/01/02 08:34:13;;;;;;;3.40;1.40;;;;;;;16.27;68.72;101451.94;6160681;23;20447;-76
2023/01/02 08:36:40;;;;;;;4.72;1.40;;;;;;;16.27;68.69;101460.59;6137485;23;20012;-78
2023/01/02 08:39:05;;;;;;;4.05;1.30;;;;;;;16.28;68.85;101466.63;6187889;23;20083;-75
2023/01/02 08:41:33;;;;;;;3.22;1.50;;;;;;;16.29;68.66;101473.56;6161629;23;20025;-78
2023/01/02 08:43:59;;;;;;;2.15;1.30;;;;;;;16.28;68.69;101470.09;6158521;23;20021;-78
2023/01/02 08:46:24;;;;;;;4.05;1.30;;;;;;;16.29;68.62;101481.34;6107505;23;20068;-79
2023/01/02 08:48:50;;;;;;;2.78;1.33;;;;;;;16.29;68.59;101479.66;6107580;23;20461;-76
2023/01/02 08:51:15;;;;;;;3.20;1.50;;;;;;;16.29;68.42;101492.63;6107387;23;20447;-75
2023/01/02 08:53:40;;;;;;;2.92;1.27;;;;;;;16.30;68.41;101502.16;6107257;23;20072;-76
2023/01/02 08:56:26;;;;;;;2.78;1.20;;;;;;;16.31;68.44;101503.00;6131668;23;20379;-75
2023/01/02 08:59:02;;;;;;;2.72;1.33;;;;;;;16.31;68.44;101514.28;6131746;23;20012;-76
2023/01/02 09:01:29;;;;;;;2.08;1.10;;;;;;;16.32;68.55;101525.53;6131562;23;20088;-74
2023/01/02 09:03:55;;;;;;;2.20;1.10;;;;;;;16.33;68.39;101524.66;6157800;23;20010;-75
2023/01/02 09:06:25;;;;;;;3.25;1.25;;;;;;;16.32;68.40;101518.63;6157629;23;20009;-75
2023/01/02 09:08:51;;;;;;;1.75;1.10;;;;;;;16.34;68.06;101516.03;6131790;23;20020;-76
2023/01/02 09:11:20;;;;;;;1.85;0.98;;;;;;;16.33;68.32;101516.88;6131653;23;20043;-77
2023/01/02 09:13:45;;;;;;;2.25;1.10;;;;;;;16.33;68.44;101524.66;6131730;23;20031;-76
2023/01/02 09:16:11;;;;;;;2.50;1.20;;;;;;;16.33;68.17;101529.88;6131735;23;20024;-76
2023/01/02 09:18:37;;;;;;;1.33;0.75;;;;;;;16.33;68.22;101543.75;6107501;23;20009;-78
2023/01/02 09:21:03;;;;;;;1.85;1.00;;;;;;;16.32;68.32;101539.38;6157873;23;20087;-76
2023/01/02 09:23:30;;;;;;;1.75;0.77;;;;;;;16.32;68.11;101547.19;6131524;23;20005;-75
2023/01/02 09:25:58;;;;;;;3.17;1.20;;;;;;;16.33;68.31;101545.44;6131261;23;19998;-77
2023/01/02 09:28:23;;;;;;;2.58;0.98;;;;;;;16.33;68.08;101545.44;6157525;23;20339;-77
2023/01/02 09:30:49;;;;;;;2.22;0.90;;;;;;;16.33;68.06;101551.53;6131311;23;20005;-76
2023/01/02 09:33:14;;;;;;;2.10;0.93;;;;;;;16.32;68.03;101548.91;6131238;23;20009;-76
2023/01/02 09:35:39;;;;;;;2.17;1.13;;;;;;;16.33;68.31;101548.94;6106859;23;20008;-75
2023/01/02 09:38:05;;;;;;;2.10;1.00;;;;;;;16.33;68.37;101558.44;6106807;23;20013;-77
2023/01/02 09:40:31;;;;;;;2.08;1.00;;;;;;;16.34;68.35;101570.59;6106948;23;20005;-75
2023/01/02 09:42:58;;;;;;;1.70;0.90;;;;;;;16.34;68.38;101566.25;6147826;23;20017;-75
2023/01/02 09:45:24;;;;;;;2.30;0.85;;;;;;;16.35;68.34;101565.41;6161415;23;20039;-76
2023/01/02 09:47:52;;;;;;;2.70;1.15;;;;;;;16.36;68.02;101556.75;6136203;23;20005;-78
2023/01/02 09:50:28;;;;;;;2.60;1.10;;;;;;;16.37;68.14;101548.06;6136213;23;20009;-76
2023/01/02 09:52:56;;;;;;;2.47;1.05;;;;;;;16.39;68.01;101541.16;6160994;23;20004;-75
2023/01/02 09:55:33;;;;;;;1.63;1.00;;;;;;;16.41;68.08;101551.56;6187039;23;19997;-75
2023/01/02 09:58:45;;;;;;;1.75;0.93;;;;;;;16.43;68.17;101575.84;6185476;23;20503;-76
2023/01/02 10:01:42;;;;;;;2.05;0.90;;;;;;;16.47;67.89;101574.13;6161054;23;20005;-77
2023/01/02 10:04:16;;;;;;;1.75;0.90;;;;;;;16.48;67.78;101579.31;6161250;23;20338;-75
2023/01/02 10:07:05;;;;;;;1.42;0.77;;;;;;;16.49;67.87;101585.41;6160490;23;20008;-76
2023/01/02 10:09:44;;;;;;;2.47;1.00;;;;;;;16.49;68.02;101588.88;6160555;23;20013;-75
2023/01/02 10:12:18;;;;;;;1.70;0.88;;;;;;;16.49;67.91;101580.22;6186771;23;20005;-74
2023/01/02 10:15:00;;;;;;;2.00;0.90;;;;;;;16.49;67.91;101590.59;6186805;23;20001;-75
2023/01/02 10:17:30;;;;;;;2.50;1.05;;;;;;;16.50;67.79;101605.31;6160452;23;20083;-75
2023/01/02 10:20:18;;;;;;;2.33;0.80;;;;;;;16.50;67.72;101621.78;6160529;23;20009;-76
2023/01/02 10:22:52;;;;;;;2.72;0.90;;;;;;;16.49;68.44;101604.47;6160470;23;20009;-76
2023/01/02 10:25:32;;;;;;;1.88;0.85;;;;;;;16.46;68.10;101604.41;6160466;23;20079;-76
2023/01/02 10:28:10;;;;;;;2.33;0.90;;;;;;;16.47;68.09;101605.31;6160302;23;20021;-76
2023/01/02 10:30:42;;;;;;;1.73;0.90;;;;;;;16.45;68.18;101598.34;6160464;23;20013;-76
2023/01/02 10:33:20;;;;;;;2.45;1.02;;;;;;;16.47;68.05;101594.91;6160457;23;19997;-79
2023/01/02 10:35:54;;;;;;;1.77;0.80;;;;;;;16.48;67.94;101583.66;6160298;23;20039;-80
2023/01/02 10:38:20;;;;;;;1.67;0.73;;;;;;;16.50;67.92;101594.94;6160377;23;20013;-79
2023/01/02 10:40:48;;;;;;;1.83;0.80;;;;;;;16.48;68.06;101597.50;6135986;23;20012;-79
2023/01/02 10:43:15;;;;;;;1.70;0.77;;;;;;;16.49;67.93;101601.88;6160005;23;20445;-80
2023/01/02 10:45:41;;;;;;;2.42;0.90;;;;;;;16.51;67.64;101610.53;6161099;23;20001;-79
2023/01/02 10:48:09;;;;;;;1.67;0.80;;;;;;;16.51;67.92;101607.94;6135644;23;20040;-81
2023/01/02 10:50:43;;;;;;;2.42;1.00;;;;;;;16.53;67.64;101601.03;6135598;23;20022;-78
2023/01/02 10:53:19;;;;;;;2.08;0.80;;;;;;;16.52;67.86;101595.81;6159976;23;20015;-81
2023/01/02 10:55:44;;;;;;;1.75;0.90;;;;;;;16.53;67.82;101607.97;6186303;23;20426;-80
2023/01/02 10:58:23;;;;;;;2.35;0.98;;;;;;;16.54;67.92;101617.47;6135542;23;20012;-79
2023/01/02 11:00:51;;;;;;;2.88;0.90;;;;;;;16.53;67.88;101614.03;6160127;23;20005;-78
2023/01/02 11:03:26;;;;;;;1.52;0.70;;;;;;;16.53;67.68;101608.81;6185217;23;20030;-80
2023/01/02 11:05:54;;;;;;;1.98;0.75;;;;;;;16.55;67.48;101612.31;6186508;23;20426;-79
2023/01/02 11:08:22;;;;;;;1.27;0.73;;;;;;;16.54;67.87;101604.50;6160534;23;20334;-79
2023/01/02 11:10:48;;;;;;;1.92;0.88;;;;;;;16.53;67.97;101608.81;6185165;23;20003;-81
2023/01/02 11:13:17;;;;;;;2.05;0.98;;;;;;;16.53;67.96;101610.56;6160384;23;20009;-81
2023/01/02 11:15:54;;;;;;;2.10;0.70;;;;;;;16.53;67.76;101608.81;6185024;23;20396;-80
2023/01/02 11:18:34;;;;;;;1.85;0.77;;;;;;;16.54;67.81;101625.28;6186360;23;20005;-79
2023/01/02 11:21:06;;;;;;;1.40;0.60;;;;;;;16.54;67.98;101625.28;6160434;23;20325;-79
2023/01/02 11:23:36;;;;;;;2.00;0.80;;;;;;;16.55;67.71;101630.50;6159943;23;20001;-80
2023/01/02 11:26:03;;;;;;;1.92;0.80;;;;;;;16.55;67.80;101633.09;6186380;23;20005;-80
2023/01/02 11:28:32;;;;;;;2.95;0.90;;;;;;;16.56;67.72;101634.81;6161371;23;20004;-81
2023/01/02 11:31:04;;;;;;;1.08;0.60;;;;;;;16.56;67.71;101645.22;6159905;23;20144;-81
2023/01/02 11:33:33;;;;;;;2.20;0.80;;;;;;;16.58;67.49;101659.09;6186178;23;20311;-80
2023/01/02 11:36:04;;;;;;;1.60;0.70;;;;;;;16.60;67.69;101654.78;6186060;23;20021;-82
2023/01/02 11:38:48;;;;;;;3.15;0.80;;;;;;;16.60;67.89;101657.38;6184617;23;20045;-78
2023/01/02 11:44:19;;;;;;;1.65;0.70;;;;;;;16.60;67.99;101652.19;6186176;23;20409;-81